Time;durP1;ratioP1;P1;durP2;ratioP2;P2;SDS_P1;SDS_P2;PMS_P1;PMS_P2;Temp;Humidity;BMP_temperature;BMP_pressure;BME280_temperature;BME280_humidity;BME280_pressure;Samples;Min_cycle;Max_cycle;Signal;HPM_P1;HPM_P2
2023/07/20 00:01:25;;;;;;;9.07;2.25;;;;;;;23.87;60.08;99125.09;4990031;28;20024;-96
2023/07/20 00:03:54;;;;;;;20.13;2.50;;;;;;;23.80;62.55;99142.25;4987442;28;20030;-96
2023/07/20 00:06:27;;;;;;;4.80;1.65;;;;;;;23.85;59.60;99141.16;4988812;28;20026;-96
2023/07/20 00:08:53;;;;;;;6.97;2.00;;;;;;;23.80;62.90;99144.19;4988693;28;20097;-96
2023/07/20 00:11:19;;;;;;;4.38;1.50;;;;;;;23.83;58.78;99156.44;4987251;28;20025;-96
2023/07/20 00:13:45;;;;;;;15.02;1.85;;;;;;;23.89;61.93;99158.53;5004421;28;20026;-96
2023/07/20 00:16:10;;;;;;;6.28;1.85;;;;;;;23.73;59.53;99161.31;4972341;28;20385;-96
2023/07/20 00:18:36;;;;;;;13.05;1.65;;;;;;;23.63;59.19;99139.09;4971625;28;20029;-96
2023/07/20 00:21:01;;;;;;;6.75;1.98;;;;;;;23.50;62.18;99158.47;4986994;28;20518;-96
2023/07/20 00:23:27;;;;;;;10.77;1.73;;;;;;;23.59;61.66;99150.00;4987221;28;20080;-96
2023/07/20 00:25:53;;;;;;;9.05;1.98;;;;;;;23.57;62.25;99133.09;4987727;28;20025;-96
2023/07/20 00:28:21;;;;;;;5.07;1.73;;;;;;;23.37;63.56;99102.88;4988116;28;20038;-95
2023/07/20 00:30:47;;;;;;;6.85;2.17;;;;;;;23.45;64.23;99111.25;4987432;28;20369;-95
2023/07/20 00:33:12;;;;;;;6.78;1.50;;;;;;;23.42;61.56;99096.28;4985878;28;20172;-95
2023/07/20 00:35:38;;;;;;;7.53;1.30;;;;;;;23.39;62.58;99092.31;4987370;28;20030;-96
2023/07/20 00:38:04;;;;;;;5.53;1.25;;;;;;;23.31;65.90;99082.31;4986500;28;20064;-95
2023/07/20 00:40:37;;;;;;;6.65;2.10;;;;;;;23.30;64.86;99077.97;4971070;28;20113;-95
2023/07/20 00:43:03;;;;;;;7.95;2.30;;;;;;;23.44;66.73;99071.19;4986871;28;20036;-96
2023/07/20 00:45:29;;;;;;;5.43;1.58;;;;;;;23.43;65.24;99062.16;4986870;28;20022;-95
2023/07/20 00:47:54;;;;;;;8.77;1.73;;;;;;;23.47;67.04;99065.78;4970276;28;20021;-96
2023/07/20 00:50:20;;;;;;;9.73;1.80;;;;;;;23.42;67.34;99059.78;4986942;28;20420;-95
2023/07/20 00:52:45;;;;;;;7.20;2.22;;;;;;;23.37;66.49;99036.13;4986673;28;20025;-96
2023/07/20 00:55:11;;;;;;;8.98;1.73;;;;;;;23.50;65.75;99058.75;4986166;28;20029;-96
2023/07/20 00:57:36;;;;;;;3.92;1.52;;;;;;;23.45;66.22;99028.81;4985720;28;20038;-96
2023/07/20 01:00:02;;;;;;;5.95;1.52;;;;;;;23.37;63.48;99022.41;4987477;28;20033;-96
2023/07/20 01:02:27;;;;;;;8.63;2.05;;;;;;;23.27;67.92;99021.03;4986955;28;20088;-95
2023/07/20 01:04:53;;;;;;;11.40;2.63;;;;;;;23.30;68.42;99014.00;4987793;28;20017;-96
2023/07/20 01:07:25;;;;;;;9.77;2.58;;;;;;;23.18;69.84;98982.00;4986199;28;20030;-95
2023/07/20 01:10:15;;;;;;;8.02;3.08;;;;;;;22.97;70.05;98908.19;5003195;28;20032;-96
2023/07/20 01:12:47;;;;;;;9.85;2.00;;;;;;;23.00;71.62;98874.53;5003198;28;20018;-96
2023/07/20 01:15:13;;;;;;;8.07;2.17;;;;;;;22.57;72.41;98745.50;4988825;28;20033;-96
2023/07/20 01:17:38;;;;;;;10.02;2.05;;;;;;;22.56;68.74;98671.78;4986869;28;20472;-96
2023/07/20 01:20:04;;;;;;;9.20;2.38;;;;;;;22.51;67.44;98694.81;4986247;28;20515;-96
2023/07/20 01:22:47;;;;;;;6.80;1.70;;;;;;;22.40;67.56;98711.09;4987243;28;20018;-96
2023/07/20 01:25:31;;;;;;;12.73;3.10;;;;;;;22.41;67.06;98720.09;5002329;28;20022;-96
2023/07/20 01:28:12;;;;;;;6.70;1.65;;;;;;;22.49;65.07;98745.72;5001683;28;20122;-96
2023/07/20 01:31:04;;;;;;;6.50;2.25;;;;;;;22.56;65.82;98787.81;5003674;28;20021;-96
2023/07/20 01:33:29;;;;;;;;;;;;;;;22.57;69.24;98770.19;4976836;28;20095;-96
2023/07/20 01:35:56;;;;;;;2.88;1.45;;;;;;;22.43;66.39;98734.25;5002024;28;19921;-96
2023/07/20 01:38:22;;;;;;;7.75;2.72;;;;;;;22.40;68.20;98754.97;4986979;28;20044;-96
2023/07/20 01:40:54;;;;;;;10.43;1.65;;;;;;;22.64;68.10;98771.47;4987849;28;20029;-96
2023/07/20 01:43:19;;;;;;;4.57;1.63;;;;;;;22.52;69.02;98747.75;4972557;28;20026;-96
2023/07/20 01:45:45;;;;;;;6.25;1.90;;;;;;;22.54;69.80;98729.78;4969935;28;20499;-96
2023/07/20 01:48:10;;;;;;;7.78;1.92;;;;;;;22.53;68.76;98722.69;4985249;28;20465;-96
2023/07/20 01:50:36;;;;;;;7.47;1.88;;;;;;;22.53;67.46;98741.09;4985813;28;20088;-96
2023/07/20 01:53:10;;;;;;;6.60;1.80;;;;;;;22.44;67.02;98732.31;4986705;28;20049;-96
2023/07/20 01:55:35;;;;;;;8.07;1.67;;;;;;;22.47;68.40;98754.31;4987977;28;20029;-96
2023/07/20 01:58:01;;;;;;;9.40;1.98;;;;;;;22.40;68.50;98749.50;4985053;28;20053;-96
2023/07/20 02:00:27;;;;;;;9.27;2.10;;;;;;;22.37;68.41;98743.94;4986680;28;20412;-95
2023/07/20 02:02:52;;;;;;;4.85;1.58;;;;;;;22.20;71.16;98720.47;4986772;28;20030;-96
2023/07/20 02:05:18;;;;;;;4.65;1.77;;;;;;;22.26;69.43;98745.69;4985418;28;20057;-95
2023/07/20 02:07:43;;;;;;;8.00;1.77;;;;;;;22.35;69.35;98759.97;4984305;28;20050;-95
2023/07/20 02:10:09;;;;;;;11.27;2.05;;;;;;;22.28;69.75;98740.63;4984123;28;20049;-96
2023/07/20 02:12:35;;;;;;;7.57;1.67;;;;;;;22.14;71.59;98739.19;4984882;28;20399;-96
2023/07/20 02:15:01;;;;;;;6.57;1.70;;;;;;;22.08;71.06;98742.56;4984421;28;20445;-95
2023/07/20 02:17:26;;;;;;;5.78;2.25;;;;;;;21.95;73.94;98741.91;4984995;28;20033;-96
2023/07/20 02:19:55;;;;;;;5.00;1.67;;;;;;;21.75;75.25;98741.13;4985514;28;20030;-96
2023/07/20 02:22:21;;;;;;;10.38;2.00;;;;;;;21.81;74.67;98736.94;4986492;28;20029;-96
2023/07/20 02:24:47;;;;;;;8.75;2.35;;;;;;;21.58;76.00;98715.72;4985746;28;20073;-96
2023/07/20 02:27:12;;;;;;;5.22;1.50;;;;;;;21.64;74.83;98707.97;4984810;28;20022;-96
2023/07/20 02:29:38;;;;;;;4.70;2.03;;;;;;;21.56;76.30;98712.53;4984505;28;20022;-96
2023/07/20 02:32:04;;;;;;;6.20;1.88;;;;;;;21.63;74.68;98727.53;4985989;28;20049;-96
2023/07/20 02:34:29;;;;;;;6.00;1.85;;;;;;;21.46;76.43;98715.81;4989861;28;20041;-96
2023/07/20 02:36:58;;;;;;;6.25;2.00;;;;;;;21.50;76.98;98743.28;4988102;28;20087;-96
2023/07/20 02:39:24;;;;;;;7.57;2.05;;;;;;;21.46;76.31;98725.97;4990982;28;20095;-96
2023/07/20 02:41:50;;;;;;;4.60;2.00;;;;;;;21.45;77.40;98735.34;4973191;28;20045;-95
2023/07/20 02:44:18;;;;;;;6.47;1.83;;;;;;;21.44;75.80;98731.03;4973132;28;20022;-96
2023/07/20 02:46:44;;;;;;;7.82;2.10;;;;;;;21.45;74.91;98711.47;4987841;28;20030;-95
2023/07/20 02:49:09;;;;;;;3.67;1.88;;;;;;;21.47;75.40;98716.59;4987510;28;20389;-95
2023/07/20 02:51:35;;;;;;;7.47;1.80;;;;;;;21.41;75.29;98702.34;4989156;28;20029;-96
2023/07/20 02:54:01;;;;;;;6.95;2.08;;;;;;;21.47;74.81;98709.19;4987974;28;20030;-95
2023/07/20 02:56:26;;;;;;;9.50;1.83;;;;;;;21.59;74.60;98730.97;4972658;28;20041;-96
2023/07/20 02:58:52;;;;;;;5.60;1.90;;;;;;;21.61;75.14;98732.56;4973623;28;20017;-96
2023/07/20 03:01:18;;;;;;;5.18;2.03;;;;;;;21.62;73.72;98729.47;4989769;28;20499;-96
2023/07/20 03:03:46;;;;;;;8.80;1.70;;;;;;;21.68;71.32;98721.75;4988954;28;20034;-96
2023/07/20 03:06:14;;;;;;;5.35;1.90;;;;;;;21.55;70.90;98710.94;4988011;28;20408;-96
2023/07/20 03:08:41;;;;;;;9.13;2.13;;;;;;;21.68;70.97;98724.50;4972359;28;20026;-96
2023/07/20 03:11:06;;;;;;;12.00;2.10;;;;;;;21.74;69.92;98726.59;4987363;28;20030;-96
2023/07/20 03:13:32;;;;;;;5.88;2.15;;;;;;;21.79;69.11;98744.72;4987670;28;20060;-95
2023/07/20 03:15:57;;;;;;;11.73;2.70;;;;;;;21.71;68.16;98724.59;4988672;28;20037;-95
2023/07/20 03:18:23;;;;;;;6.88;2.47;;;;;;;21.91;71.34;98752.00;4988705;28;20026;-96
2023/07/20 03:20:49;;;;;;;11.43;2.40;;;;;;;21.96;69.68;98738.03;4988791;28;20029;-96
2023/07/20 03:23:15;;;;;;;7.85;2.55;;;;;;;22.08;68.91;98764.50;4988843;28;20028;-96
2023/07/20 03:25:46;;;;;;;8.02;3.10;;;;;;;22.31;68.22;98794.78;4994555;28;20081;-96
2023/07/20 03:28:11;;;;;;;9.20;3.22;;;;;;;22.15;68.34;98770.91;4994569;28;20029;-96
2023/07/20 03:30:37;;;;;;;7.03;3.20;;;;;;;22.16;69.36;98774.44;4993070;28;20018;-96
2023/07/20 03:33:03;;;;;;;7.45;2.90;;;;;;;22.32;68.92;98797.16;4993069;28;20026;-96
2023/07/20 03:35:31;;;;;;;20.75;3.97;;;;;;;22.27;69.18;98802.16;4992801;28;20092;-95
2023/07/20 03:38:06;;;;;;;18.38;3.70;;;;;;;22.09;67.84;98777.84;4989532;28;20480;-96
2023/07/20 03:40:32;;;;;;;6.38;2.13;;;;;;;22.16;70.34;98802.69;4987628;28;20030;-96
2023/07/20 03:46:19;;;;;;;10.90;2.28;;;;;;;22.13;70.08;98821.78;5023008;28;20546;-96
2023/07/20 03:48:44;;;;;;;16.05;3.28;;;;;;;22.22;69.78;98805.91;4986919;28;20065;-94
2023/07/20 03:54:32;;;;;;;10.30;2.08;;;;;;;22.25;65.26;98802.50;5021456;28;20133;-93
2023/07/20 03:56:58;;;;;;;6.10;2.00;;;;;;;22.29;64.75;98817.06;4976971;28;20058;-96
2023/07/20 03:59:23;;;;;;;5.40;2.05;;;;;;;22.27;63.95;98807.63;4992271;28;20022;-96
2023/07/20 04:01:52;;;;;;;10.68;1.85;;;;;;;22.25;64.44;98818.16;4973797;28;20053;-96
2023/07/20 04:04:44;;;;;;;6.28;2.13;;;;;;;22.13;65.82;98808.09;4979855;28;20002;-96
2023/07/20 04:07:21;;;;;;;6.68;1.90;;;;;;;22.23;66.15;98806.72;4941859;29;20039;-96
2023/07/20 04:09:47;;;;;;;7.75;2.20;;;;;;;22.39;65.59;98822.00;4951017;29;20066;-95
2023/07/20 04:12:13;;;;;;;4.65;1.80;;;;;;;22.38;66.13;98825.88;4945702;29;20039;-96
2023/07/20 04:14:41;;;;;;;6.72;1.90;;;;;;;22.45;66.58;98838.94;4932944;29;20034;-96
2023/07/20 04:17:07;;;;;;;7.78;3.13;;;;;;;22.51;67.08;98836.72;4948548;29;20031;-95
2023/07/20 04:19:33;;;;;;;6.78;2.15;;;;;;;22.40;67.67;98853.75;4929038;29;20038;-91
2023/07/20 04:21:58;;;;;;;14.13;2.80;;;;;;;22.29;68.95;98825.31;4928682;29;20066;-90
2023/07/20 04:24:27;;;;;;;12.10;3.28;;;;;;;22.38;69.48;98836.06;4930409;29;20046;-90
2023/07/20 04:26:52;;;;;;;7.90;2.85;;;;;;;22.42;69.59;98847.13;4935963;29;20087;-90
2023/07/20 04:29:18;;;;;;;12.10;2.88;;;;;;;22.43;70.21;98844.00;4945669;29;20031;-91
2023/07/20 04:31:43;;;;;;;11.05;3.17;;;;;;;22.55;69.96;98851.28;4949399;29;20034;-90
2023/07/20 04:34:09;;;;;;;7.13;2.70;;;;;;;22.63;69.87;98844.00;4941791;29;20038;-90
2023/07/20 04:36:34;;;;;;;11.60;3.13;;;;;;;22.73;68.60;98838.72;4944453;29;20050;-90
2023/07/20 04:39:00;;;;;;;8.85;2.65;;;;;;;22.95;67.98;98844.59;4941828;29;20074;-90
2023/07/20 04:41:26;;;;;;;9.93;2.45;;;;;;;23.05;67.27;98849.53;4944397;29;20035;-89
2023/07/20 04:43:51;;;;;;;11.45;4.07;;;;;;;23.05;66.99;98846.00;4944037;29;20034;-89
2023/07/20 04:46:18;;;;;;;9.35;3.92;;;;;;;22.98;67.08;98835.66;4925411;29;20035;-89
2023/07/20 04:48:44;;;;;;;14.48;8.98;;;;;;;22.92;67.47;98831.63;4909876;29;20047;-90
2023/07/20 04:51:10;;;;;;;10.77;3.70;;;;;;;22.98;66.69;98824.66;4940101;29;20043;-89
2023/07/20 04:53:35;;;;;;;8.27;2.88;;;;;;;23.16;65.92;98841.50;4959417;29;20386;-88
2023/07/20 04:56:01;;;;;;;8.57;2.63;;;;;;;23.18;65.46;98831.72;4942678;29;20133;-89
2023/07/20 04:58:35;;;;;;;12.60;5.25;;;;;;;23.09;65.96;98838.59;4927158;29;20034;-88
2023/07/20 05:01:06;;;;;;;11.80;3.85;;;;;;;23.26;64.71;98831.84;4944364;29;20027;-90
2023/07/20 05:03:34;;;;;;;13.05;3.55;;;;;;;23.31;65.02;98834.28;4927331;29;20035;-90
2023/07/20 05:05:59;;;;;;;9.40;4.13;;;;;;;23.33;65.49;98843.75;4926356;29;20094;-90
2023/07/20 05:08:25;;;;;;;9.60;3.17;;;;;;;23.17;65.95;98824.63;4944389;29;20058;-91
2023/07/20 05:10:55;;;;;;;7.85;3.22;;;;;;;23.48;65.23;98831.03;4961078;28;20042;-90
2023/07/20 05:13:25;;;;;;;11.27;3.38;;;;;;;23.34;64.49;98809.59;4978086;28;20061;-91
2023/07/20 05:15:56;;;;;;;7.90;2.45;;;;;;;23.53;64.66;98830.72;4983364;28;20025;-93
2023/07/20 05:18:27;;;;;;;8.68;2.70;;;;;;;23.38;64.82;98813.19;4967178;28;20382;-92
2023/07/20 05:20:54;;;;;;;12.38;2.75;;;;;;;23.25;65.66;98802.78;4968270;28;20126;-90
2023/07/20 05:23:20;;;;;;;9.38;2.80;;;;;;;23.38;65.04;98815.94;4975872;28;20114;-91
2023/07/20 05:25:46;;;;;;;7.93;2.20;;;;;;;23.36;66.18;98831.22;4966896;28;20039;-95
2023/07/20 05:28:12;;;;;;;9.45;2.60;;;;;;;23.40;65.67;98837.56;4978191;28;20029;-93
2023/07/20 05:30:40;;;;;;;7.00;3.10;;;;;;;23.44;64.76;98823.91;4979862;28;20037;-92
2023/07/20 05:33:06;;;;;;;6.60;2.92;;;;;;;23.50;64.08;98801.22;4986884;28;20030;-91
2023/07/20 05:35:32;;;;;;;11.70;2.70;;;;;;;23.64;66.11;98814.41;4976681;28;20029;-91
2023/07/20 05:37:57;;;;;;;7.65;2.83;;;;;;;23.48;65.33;98824.75;4974828;28;20062;-95
2023/07/20 05:40:23;;;;;;;12.27;3.08;;;;;;;23.33;65.87;98810.78;4974576;28;20030;-91
2023/07/20 05:42:51;;;;;;;7.63;3.17;;;;;;;23.44;65.26;98821.94;4956150;28;20037;-92
2023/07/20 05:45:17;;;;;;;15.23;7.93;;;;;;;23.46;64.54;98811.38;4982765;28;20034;-95
2023/07/20 05:47:43;;;;;;;6.32;3.00;;;;;;;23.58;64.72;98821.38;4978902;28;20030;-91
2023/07/20 05:50:09;;;;;;;10.43;3.28;;;;;;;23.73;65.05;98812.16;4973544;28;20025;-92
2023/07/20 05:52:38;;;;;;;6.32;2.38;;;;;;;23.67;64.85;98801.88;4972293;28;20386;-91
2023/07/20 05:55:04;;;;;;;8.52;2.53;;;;;;;23.89;62.81;98823.03;4977371;28;20085;-91
2023/07/20 05:57:30;;;;;;;5.55;2.55;;;;;;;24.10;61.98;98838.25;4978052;28;20085;-92
2023/07/20 06:00:03;;;;;;;7.70;2.58;;;;;;;24.18;62.37;98832.47;4983730;28;20026;-95
2023/07/20 06:02:29;;;;;;;11.25;2.40;;;;;;;24.15;62.36;98802.16;4975279;28;20077;-93
2023/07/20 06:05:11;;;;;;;6.13;2.53;;;;;;;24.39;60.87;98812.69;4968802;28;20026;-93
2023/07/20 06:07:37;;;;;;;15.60;3.70;;;;;;;24.24;63.61;98801.88;4983238;28;20042;-92
2023/07/20 06:10:03;;;;;;;13.80;3.20;;;;;;;24.33;62.19;98816.16;4974760;28;20049;-92
2023/07/20 06:12:30;;;;;;;20.40;7.68;;;;;;;24.53;61.36;98817.59;4991311;28;20030;-92
2023/07/20 06:14:56;;;;;;;7.55;2.92;;;;;;;24.51;62.98;98814.44;4975380;28;20049;-93
2023/07/20 06:17:22;;;;;;;14.82;2.97;;;;;;;24.57;61.45;98810.16;4991756;28;20026;-93
2023/07/20 06:19:47;;;;;;;9.73;3.33;;;;;;;24.68;62.36;98798.50;4967764;28;20022;-95
2023/07/20 06:22:13;;;;;;;8.77;2.90;;;;;;;24.96;60.06;98817.25;4976400;28;20045;-92
2023/07/20 06:24:38;;;;;;;9.00;3.25;;;;;;;25.17;59.53;98809.19;4986463;28;20038;-93
2023/07/20 06:27:05;;;;;;;9.55;2.58;;;;;;;25.28;59.13;98806.56;4960101;28;20038;-94
2023/07/20 06:39:44;;;;;;;40.10;25.13;;;;;;;25.59;57.25;98812.69;4968797;29;20167;-95
2023/07/20 06:50:48;;;;;;;11.13;3.17;;;;;;;25.84;55.70;98801.00;5038838;28;20475;-94
2023/07/20 06:53:24;;;;;;;14.63;4.53;;;;;;;25.93;56.83;98804.25;4987523;28;20037;-96
2023/07/20 06:56:22;;;;;;;9.43;2.75;;;;;;;26.05;55.01;98798.41;4973754;28;20034;-95
2023/07/20 06:58:51;;;;;;;5.05;2.45;;;;;;;26.15;54.62;98802.41;4928927;28;20045;-94
2023/07/20 07:01:21;;;;;;;3.70;1.63;;;;;;;26.20;51.36;98807.56;4980493;28;20041;-93
2023/07/20 07:03:47;;;;;;;3.75;1.83;;;;;;;26.38;50.29;98827.75;4979103;28;20408;-94
2023/07/20 07:06:13;;;;;;;5.18;1.70;;;;;;;26.37;51.65;98822.59;4984377;28;20030;-95
2023/07/20 07:08:38;;;;;;;3.65;1.40;;;;;;;26.34;50.92;98802.09;4976333;28;20061;-94
2023/07/20 07:11:05;;;;;;;6.28;1.30;;;;;;;26.47;49.71;98808.06;5001974;28;20064;-93
2023/07/20 07:13:34;;;;;;;6.03;1.45;;;;;;;26.51;49.13;98808.84;5010832;28;20025;-92
2023/07/20 07:16:18;;;;;;;4.35;1.35;;;;;;;26.72;48.08;98819.19;5010151;28;20059;-93
2023/07/20 07:18:46;;;;;;;1.90;1.10;;;;;;;26.69;48.22;98814.47;4992708;28;20033;-93
2023/07/20 07:21:12;;;;;;;3.28;1.30;;;;;;;26.81;47.73;98825.16;4992312;28;20036;-93
2023/07/20 07:23:38;;;;;;;2.78;1.55;;;;;;;26.93;47.75;98828.72;4974599;28;20089;-93
2023/07/20 07:26:04;;;;;;;3.15;1.50;;;;;;;26.94;47.62;98816.50;4970761;28;20030;-93
2023/07/20 07:28:29;;;;;;;3.33;1.38;;;;;;;26.95;47.29;98820.81;4956512;28;20114;-94
2023/07/20 07:30:56;;;;;;;3.55;1.30;;;;;;;27.01;47.68;98819.25;5004951;28;20052;-92
2023/07/20 07:33:22;;;;;;;3.83;1.20;;;;;;;27.14;47.39;98828.72;4992669;28;20176;-92
2023/07/20 07:35:50;;;;;;;2.88;1.35;;;;;;;27.14;47.31;98830.72;5012362;28;20038;-96
2023/07/20 07:38:46;;;;;;;4.00;1.70;;;;;;;27.44;47.97;98841.44;4996767;28;20029;-94
2023/07/20 07:41:12;;;;;;;7.57;4.22;;;;;;;27.59;47.27;98842.22;5033648;28;20042;-95
2023/07/20 07:43:45;;;;;;;6.80;1.70;;;;;;;27.55;45.23;98827.59;4995352;28;20064;-95
2023/07/20 07:46:15;;;;;;;4.53;3.00;;;;;;;27.60;45.10;98832.72;5024822;28;20037;-92
2023/07/20 07:48:42;;;;;;;2.97;1.60;;;;;;;27.66;45.27;98833.91;5014549;28;20021;-92
2023/07/20 07:51:07;;;;;;;4.03;1.48;;;;;;;27.60;45.72;98836.28;5010635;28;20029;-94
2023/07/20 07:53:34;;;;;;;3.88;1.90;;;;;;;27.51;45.66;98815.75;5008523;28;20045;-95
2023/07/20 07:56:09;;;;;;;6.70;3.50;;;;;;;27.67;45.88;98826.41;4977340;28;20126;-93
2023/07/20 07:58:43;;;;;;;4.30;1.80;;;;;;;27.74;45.21;98829.16;4949927;29;20087;-96
2023/07/20 08:01:11;;;;;;;4.40;1.45;;;;;;;27.95;45.23;98845.75;4921988;29;20031;-96
2023/07/20 08:04:44;;;;;;;6.78;1.92;;;;;;;27.95;45.23;98826.38;4942216;28;20055;-95
2023/07/20 08:07:18;;;;;;;4.93;1.77;;;;;;;28.12;44.58;98830.28;4900489;29;20514;-95
2023/07/20 08:13:09;;;;;;;6.45;1.65;;;;;;;28.14;43.76;98816.84;5066781;22;20056;-96
2023/07/20 08:31:00;;;;;;;3.70;1.40;;;;;;;28.74;42.07;98836.38;5420370;22;20118;-95
2023/07/20 08:33:33;;;;;;;2.40;1.33;;;;;;;28.81;41.86;98844.66;5005402;28;20038;-96
2023/07/20 08:36:01;;;;;;;5.35;2.60;;;;;;;29.06;41.91;98844.50;4977261;28;20034;-96
2023/07/20 08:38:33;;;;;;;3.60;1.40;;;;;;;29.06;41.71;98833.41;4992793;28;20397;-96
2023/07/20 08:41:14;;;;;;;4.03;1.37;;;;;;;29.09;41.85;98834.56;4955108;28;20038;-96
2023/07/20 08:50:15;;;;;;;5.03;2.08;;;;;;;29.46;42.71;98841.47;4959582;28;20332;-89
2023/07/20 08:53:01;;;;;;;3.40;1.30;;;;;;;29.57;41.49;98829.09;4969248;28;20039;-92
2023/07/20 08:55:53;;;;;;;4.25;1.50;;;;;;;29.74;40.61;98841.25;4979151;28;20042;-91
2023/07/20 08:58:21;;;;;;;;;;;;;;;29.96;40.77;98849.34;4982210;28;20034;-91
2023/07/20 09:00:52;;;;;;;2.60;1.30;;;;;;;29.84;40.73;98855.41;4977789;28;20000;-91
2023/07/20 09:03:19;;;;;;;4.05;1.48;;;;;;;29.90;40.98;98840.66;4974884;28;20026;-87
2023/07/20 09:05:44;;;;;;;3.78;1.50;;;;;;;29.98;40.55;98856.06;4982316;28;20025;-89
2023/07/20 09:08:13;;;;;;;3.53;1.48;;;;;;;29.99;40.50;98860.41;4983662;28;20416;-90
2023/07/20 09:10:39;;;;;;;4.45;1.92;;;;;;;29.87;41.36;98854.59;4979416;28;20041;-88
2023/07/20 09:13:04;;;;;;;2.90;1.63;;;;;;;29.93;40.59;98867.63;4968066;28;20033;-94
2023/07/20 09:15:30;;;;;;;4.47;1.45;;;;;;;29.90;40.35;98854.53;4973023;28;20030;-96
2023/07/20 09:17:56;;;;;;;3.72;1.52;;;;;;;30.00;40.96;98873.09;4984085;28;20065;-92
2023/07/20 09:20:22;;;;;;;3.28;1.60;;;;;;;29.90;40.87;98857.31;4978058;28;20027;-95
2023/07/20 09:23:08;;;;;;;4.65;1.52;;;;;;;30.06;41.05;98867.09;4974153;28;20056;-88
2023/07/20 09:25:54;;;;;;;3.67;2.20;;;;;;;30.14;40.65;98882.47;4992271;28;20640;-95
2023/07/20 09:28:20;;;;;;;5.53;1.60;;;;;;;30.13;41.03;98856.72;4992978;28;20034;-95
2023/07/20 09:30:48;;;;;;;2.15;1.60;;;;;;;30.14;41.05;98841.59;4978416;28;20086;-92
2023/07/20 09:33:23;;;;;;;4.35;1.67;;;;;;;30.16;41.29;98832.88;5009498;28;20077;-91
2023/07/20 09:35:48;;;;;;;4.15;1.98;;;;;;;30.01;41.66;98824.69;4985783;28;20052;-92
2023/07/20 09:38:14;;;;;;;5.25;1.80;;;;;;;30.20;42.63;98826.06;4983405;28;20106;-92
2023/07/20 09:40:42;;;;;;;4.75;1.95;;;;;;;30.08;40.61;98815.50;4998276;28;20065;-93
2023/07/20 09:43:11;;;;;;;4.53;1.70;;;;;;;30.01;41.17;98801.72;4995118;28;20053;-96
2023/07/20 09:46:35;;;;;;;2.70;1.70;;;;;;;30.32;41.57;98844.22;5476650;22;20017;-95
2023/07/20 09:49:18;;;;;;;6.07;1.85;;;;;;;30.14;41.66;98816.63;4966505;29;20051;-95
2023/07/20 09:52:27;;;;;;;;;;;;;;;;;;;;;
2023/07/20 09:54:58;;;;;;;4.65;1.75;;;;;;;30.19;41.08;98796.69;5041336;28;20052;-95
2023/07/20 09:58:18;;;;;;;2.65;1.90;;;;;;;30.19;41.51;98793.94;5018986;28;20096;-95
2023/07/20 10:01:21;;;;;;;1.90;1.60;;;;;;;30.35;41.92;98804.47;5013975;28;20117;-96
2023/07/20 10:03:46;;;;;;;10.63;7.00;;;;;;;30.56;40.92;98797.06;4997617;28;20042;-92
2023/07/20 10:06:25;;;;;;;5.70;2.30;;;;;;;30.86;40.77;98787.09;4992498;28;20084;-94
2023/07/20 10:12:27;;;;;;;6.22;1.88;;;;;;;30.66;39.75;98776.69;5009197;28;20038;-93
2023/07/20 10:15:27;;;;;;;4.10;1.80;;;;;;;30.69;39.20;98789.72;5031416;28;20013;-96
2023/07/20 10:18:10;;;;;;;2.97;1.70;;;;;;;30.74;39.63;98788.50;4979045;28;20035;-95
2023/07/20 10:24:11;;;;;;;;;;;;;;;;;;;;;
2023/07/20 10:27:12;;;;;;;4.45;1.80;;;;;;;30.97;39.81;98776.66;4980774;28;20069;-96
2023/07/20 10:30:03;;;;;;;4.10;1.60;;;;;;;30.80;39.46;98759.03;4966366;29;20043;-96
2023/07/20 10:38:49;;;;;;;3.40;1.67;;;;;;;31.20;38.88;98770.31;4932421;29;20070;-93
